Time;durP1;ratioP1;P1;durP2;ratioP2;P2;SDS_P1;SDS_P2;PMS_P1;PMS_P2;Temp;Humidity;BMP_temperature;BMP_pressure;BME280_temperature;BME280_humidity;BME280_pressure;Samples;Min_cycle;Max_cycle;Signal;HPM_P1;HPM_P2
2023/03/07 00:00:04;;;;;;;5.85;1.40;;;4.00;99.90;;;;;;5075715;28;20047;-43
2023/03/07 00:02:30;;;;;;;5.90;1.40;;;3.90;99.90;;;;;;5075566;28;20343;-41
2023/03/07 00:04:56;;;;;;;4.75;1.08;;;4.00;99.90;;;;;;5075703;28;20265;-40
2023/03/07 00:07:21;;;;;;;3.83;1.48;;;3.90;99.90;;;;;;5057234;28;20071;-44
2023/03/07 00:09:47;;;;;;;6.35;1.35;;;4.00;99.90;;;;;;5054484;28;20447;-40
2023/03/07 00:12:13;;;;;;;4.78;1.55;;;3.90;99.90;;;;;;5053190;28;20044;-46
2023/03/07 00:14:38;;;;;;;8.32;1.98;;;3.90;99.90;;;;;;5054488;28;20064;-44
2023/03/07 00:17:04;;;;;;;12.32;1.88;;;3.90;99.90;;;;;;5053662;28;20045;-43
2023/03/07 00:19:30;;;;;;;15.10;2.20;;;3.70;99.90;;;;;;5064423;28;20044;-44
2023/03/07 00:21:55;;;;;;;12.55;2.30;;;3.70;99.90;;;;;;5073441;28;20535;-43
2023/03/07 00:24:21;;;;;;;10.70;1.92;;;3.60;99.90;;;;;;5075254;28;20036;-41
2023/03/07 00:26:46;;;;;;;9.52;1.80;;;3.60;99.90;;;;;;5074134;28;20051;-41
2023/03/07 00:29:12;;;;;;;5.80;1.20;;;3.60;99.90;;;;;;5075177;28;20071;-40
2023/03/07 00:31:38;;;;;;;5.65;1.30;;;3.60;99.90;;;;;;5062266;28;20410;-42
2023/03/07 00:34:04;;;;;;;6.30;1.30;;;3.70;99.90;;;;;;5045079;28;20044;-46
2023/03/07 00:36:30;;;;;;;7.00;1.50;;;3.60;99.90;;;;;;5065210;28;20059;-42
2023/03/07 00:38:56;;;;;;;6.18;1.60;;;3.70;99.90;;;;;;5037421;28;20757;-37
2023/03/07 00:41:24;;;;;;;9.98;2.03;;;3.70;99.90;;;;;;5050271;28;20565;-41
2023/03/07 00:43:51;;;;;;;10.20;2.40;;;3.70;99.90;;;;;;5055065;28;20090;-37
2023/03/07 00:46:18;;;;;;;13.55;2.47;;;3.80;99.90;;;;;;5071143;28;20058;-43
2023/03/07 00:48:45;;;;;;;7.38;1.98;;;3.80;99.90;;;;;;5074778;28;20070;-44
2023/03/07 00:51:13;;;;;;;11.35;2.20;;;3.80;99.90;;;;;;5074135;28;20047;-37
2023/03/07 00:53:39;;;;;;;11.40;2.38;;;3.80;99.90;;;;;;5051256;28;20395;-44
2023/03/07 00:56:17;;;;;;;13.10;2.03;;;3.80;99.90;;;;;;5049167;28;20048;-45
2023/03/07 00:58:44;;;;;;;13.05;2.28;;;3.80;99.90;;;;;;5054535;28;20068;-37
2023/03/07 01:01:12;;;;;;;12.88;2.15;;;3.80;99.90;;;;;;5058862;28;20044;-39
2023/03/07 01:03:38;;;;;;;10.35;2.33;;;3.80;99.90;;;;;;5074740;28;20063;-44
2023/03/07 01:06:07;;;;;;;13.05;2.15;;;3.80;99.90;;;;;;5074471;28;20036;-43
2023/03/07 01:08:33;;;;;;;16.35;2.45;;;3.80;99.90;;;;;;5074237;28;20051;-44
2023/03/07 01:11:04;;;;;;;10.88;2.03;;;3.70;99.90;;;;;;5054005;28;20349;-45
2023/03/07 01:13:32;;;;;;;16.42;2.50;;;3.80;99.90;;;;;;5054087;28;20078;-42
2023/03/07 01:16:15;;;;;;;11.48;2.45;;;3.80;99.90;;;;;;5064821;28;20056;-42
2023/03/07 01:18:41;;;;;;;14.47;2.17;;;3.70;99.90;;;;;;5071115;28;20599;-40
2023/03/07 01:21:18;;;;;;;17.65;2.30;;;3.70;99.90;;;;;;5073932;28;20376;-43
2023/03/07 01:23:45;;;;;;;14.38;2.97;;;3.70;99.90;;;;;;5074491;28;20101;-40
2023/03/07 01:26:16;;;;;;;7.28;1.80;;;3.80;99.90;;;;;;5073424;28;20048;-42
2023/03/07 01:28:43;;;;;;;20.25;3.50;;;3.70;99.90;;;;;;5072424;28;20063;-42
2023/03/07 01:31:09;;;;;;;13.07;2.85;;;3.60;99.90;;;;;;5073340;28;20469;-42
2023/03/07 01:33:35;;;;;;;11.30;2.40;;;3.70;99.90;;;;;;5074535;28;20048;-42
2023/03/07 01:36:01;;;;;;;12.40;2.00;;;3.60;99.90;;;;;;5074145;28;20395;-43
2023/03/07 01:38:27;;;;;;;17.92;2.53;;;3.70;99.90;;;;;;5063391;28;20136;-45
2023/03/07 01:40:53;;;;;;;13.50;2.40;;;3.70;99.90;;;;;;5044311;28;20072;-38
2023/03/07 01:43:22;;;;;;;10.93;2.00;;;3.70;99.90;;;;;;5071796;28;20093;-37
2023/03/07 01:45:48;;;;;;;15.15;2.38;;;3.80;99.90;;;;;;5072366;28;20391;-42
2023/03/07 01:48:13;;;;;;;12.77;3.15;;;3.80;99.90;;;;;;5073460;28;20071;-42
2023/03/07 01:50:40;;;;;;;20.70;4.60;;;3.80;99.90;;;;;;5073830;28;20044;-43
2023/03/07 01:53:07;;;;;;;13.00;3.15;;;3.80;99.90;;;;;;5056637;28;20510;-43
2023/03/07 01:55:34;;;;;;;7.85;2.20;;;3.70;99.90;;;;;;5049879;28;20072;-44
2023/03/07 01:58:14;;;;;;;12.38;3.08;;;3.70;99.90;;;;;;5059893;28;20056;-41
2023/03/07 02:00:41;;;;;;;17.90;2.88;;;3.70;99.90;;;;;;5060310;28;20046;-40
2023/03/07 02:03:34;;;;;;;12.57;2.92;;;3.80;99.90;;;;;;5064394;28;20049;-39
2023/03/07 02:06:04;;;;;;;11.15;3.17;;;3.70;99.90;;;;;;5072455;28;20044;-41
2023/03/07 02:08:32;;;;;;;15.25;4.00;;;3.70;99.90;;;;;;5074049;28;20048;-43
2023/03/07 02:10:57;;;;;;;14.88;2.53;;;3.70;99.90;;;;;;5071101;28;20063;-42
2023/03/07 02:13:23;;;;;;;10.30;2.65;;;3.70;99.90;;;;;;5073292;28;20237;-44
2023/03/07 02:15:49;;;;;;;7.43;1.80;;;3.70;99.90;;;;;;5072880;28;20062;-42
2023/03/07 02:18:19;;;;;;;11.27;1.90;;;3.70;99.90;;;;;;5072833;28;20147;-44
2023/03/07 02:21:08;;;;;;;9.73;3.28;;;3.70;99.90;;;;;;5073646;28;20048;-39
2023/03/07 02:24:17;;;;;;;11.65;2.08;;;3.70;99.90;;;;;;5074250;28;20083;-43
2023/03/07 02:26:49;;;;;;;10.68;1.75;;;3.70;99.90;;;;;;5072142;28;20081;-40
2023/03/07 02:29:15;;;;;;;8.55;2.65;;;3.60;99.90;;;;;;5073348;28;20189;-41
2023/03/07 02:31:41;;;;;;;10.32;2.10;;;3.50;99.90;;;;;;5057439;28;20535;-38
2023/03/07 02:34:36;;;;;;;13.27;2.45;;;3.40;99.90;;;;;;5073686;28;20067;-43
2023/03/07 02:37:12;;;;;;;11.85;1.75;;;3.40;99.90;;;;;;5034757;28;20053;-38
2023/03/07 02:39:42;;;;;;;8.48;1.92;;;3.30;99.90;;;;;;5026255;28;20415;-42
2023/03/07 02:42:13;;;;;;;14.88;2.67;;;3.30;99.90;;;;;;5021720;28;20094;-44
2023/03/07 02:44:38;;;;;;;12.30;2.05;;;3.30;99.90;;;;;;5050184;28;20414;-45
2023/03/07 02:47:07;;;;;;;6.72;1.63;;;3.30;99.90;;;;;;5049501;28;20071;-48
2023/03/07 02:49:36;;;;;;;15.20;1.90;;;3.20;99.90;;;;;;5033145;28;20048;-42
2023/03/07 02:52:02;;;;;;;9.45;2.00;;;3.20;99.90;;;;;;5045072;28;20052;-37
2023/03/07 02:54:28;;;;;;;11.18;1.98;;;3.20;99.90;;;;;;5043807;28;20071;-40
2023/03/07 02:56:54;;;;;;;9.70;1.80;;;3.10;99.90;;;;;;5033616;28;20362;-41
2023/03/07 02:59:20;;;;;;;6.65;1.73;;;3.10;99.90;;;;;;5033170;28;20080;-40
2023/03/07 03:01:45;;;;;;;11.32;1.83;;;3.00;99.90;;;;;;5029014;28;20071;-37
2023/03/07 03:04:11;;;;;;;9.82;1.95;;;3.00;99.90;;;;;;5032833;28;20048;-44
2023/03/07 03:06:37;;;;;;;12.63;1.85;;;2.90;99.90;;;;;;5030525;28;20056;-40
2023/03/07 03:09:02;;;;;;;7.75;1.70;;;2.90;99.90;;;;;;5033417;28;20072;-38
2023/03/07 03:11:28;;;;;;;10.10;2.45;;;2.90;99.90;;;;;;5031893;28;20584;-42
2023/03/07 03:13:54;;;;;;;5.15;1.50;;;2.80;99.90;;;;;;5048268;28;20825;-43
2023/03/07 03:16:20;;;;;;;10.68;1.52;;;2.80;99.90;;;;;;5056140;28;20458;-41
2023/03/07 03:18:45;;;;;;;10.02;1.40;;;2.80;99.90;;;;;;5056634;28;20095;-37
2023/03/07 03:21:13;;;;;;;10.25;1.60;;;2.80;99.90;;;;;;5056376;28;20090;-42
2023/03/07 03:23:39;;;;;;;6.63;1.30;;;2.70;99.90;;;;;;5056676;28;20139;-41
2023/03/07 03:26:10;;;;;;;8.55;1.70;;;2.70;99.90;;;;;;5056640;28;20051;-48
2023/03/07 03:28:37;;;;;;;9.07;2.53;;;2.70;99.90;;;;;;5056336;28;20083;-42
2023/03/07 03:31:06;;;;;;;9.45;1.67;;;2.70;99.90;;;;;;5055949;28;20062;-42
2023/03/07 03:33:31;;;;;;;11.77;1.73;;;2.60;99.90;;;;;;5056120;28;20560;-39
2023/03/07 03:35:58;;;;;;;9.68;1.83;;;2.60;99.90;;;;;;5054744;28;20052;-38
2023/03/07 03:38:25;;;;;;;9.50;2.38;;;2.60;99.90;;;;;;5048686;28;20126;-44
2023/03/07 03:40:51;;;;;;;9.88;1.75;;;2.60;99.90;;;;;;5058705;28;20075;-42
2023/03/07 03:43:17;;;;;;;8.10;2.20;;;2.60;99.90;;;;;;5074971;28;20123;-42
2023/03/07 03:45:43;;;;;;;9.95;1.15;;;2.50;99.90;;;;;;5075390;28;20433;-37
2023/03/07 03:48:08;;;;;;;7.70;1.70;;;2.50;99.90;;;;;;5075345;28;20044;-45
2023/03/07 03:50:35;;;;;;;11.95;1.80;;;2.40;99.90;;;;;;5076420;28;20048;-44
2023/03/07 03:53:01;;;;;;;11.88;2.08;;;2.50;99.90;;;;;;5064526;28;20044;-44
2023/03/07 03:55:27;;;;;;;7.43;1.42;;;2.50;99.90;;;;;;5068127;28;20053;-41
2023/03/07 03:57:53;;;;;;;7.18;1.45;;;2.60;99.90;;;;;;5054120;28;20051;-36
2023/03/07 04:00:19;;;;;;;10.52;1.77;;;2.60;99.90;;;;;;5055213;28;20051;-43
2023/03/07 04:02:45;;;;;;;10.70;1.70;;;2.60;99.90;;;;;;5074063;28;20141;-45
2023/03/07 04:05:11;;;;;;;8.07;1.80;;;2.60;99.90;;;;;;5075879;28;20048;-40
2023/03/07 04:07:37;;;;;;;6.00;1.40;;;2.60;99.90;;;;;;5073294;28;20731;-39
2023/03/07 04:10:04;;;;;;;9.80;1.88;;;2.70;99.90;;;;;;5061261;28;20051;-36
2023/03/07 04:12:30;;;;;;;11.63;1.80;;;2.70;99.90;;;;;;5073081;28;20646;-43
2023/03/07 04:14:56;;;;;;;11.55;1.70;;;2.70;99.90;;;;;;5074751;28;20434;-38
2023/03/07 04:17:21;;;;;;;8.30;1.42;;;2.80;99.90;;;;;;5073168;28;20044;-43
2023/03/07 04:19:47;;;;;;;9.02;1.60;;;2.70;99.90;;;;;;5075047;28;20089;-38
2023/03/07 04:22:13;;;;;;;12.27;2.28;;;2.80;99.90;;;;;;5074521;28;20092;-36
2023/03/07 04:24:38;;;;;;;10.55;2.10;;;2.80;99.90;;;;;;5074990;28;20146;-46
2023/03/07 04:27:07;;;;;;;9.82;1.25;;;2.80;99.90;;;;;;5073893;28;20055;-44
2023/03/07 04:29:33;;;;;;;7.75;1.52;;;2.90;99.90;;;;;;5062278;28;20044;-37
2023/03/07 04:31:58;;;;;;;12.13;1.98;;;2.90;99.90;;;;;;5067365;28;20052;-41
2023/03/07 04:34:24;;;;;;;9.38;1.80;;;2.90;99.90;;;;;;5066719;28;20512;-45
2023/03/07 04:36:50;;;;;;;8.30;1.92;;;2.90;99.90;;;;;;5061413;28;20230;-44
2023/03/07 04:39:16;;;;;;;11.88;1.65;;;2.90;99.90;;;;;;5036140;28;20488;-39
2023/03/07 04:41:41;;;;;;;15.32;2.20;;;2.90;99.90;;;;;;5071522;28;20044;-37
2023/03/07 04:44:07;;;;;;;10.07;1.90;;;2.90;99.90;;;;;;5061427;28;20075;-39
2023/03/07 04:46:33;;;;;;;10.75;1.40;;;2.90;99.90;;;;;;5073339;28;20388;-38
2023/03/07 04:48:58;;;;;;;8.75;1.52;;;2.90;99.90;;;;;;5072812;28;20566;-36
2023/03/07 04:51:24;;;;;;;10.27;1.65;;;2.90;99.90;;;;;;5073552;28;20040;-43
2023/03/07 04:53:50;;;;;;;9.40;2.75;;;2.90;99.90;;;;;;5051537;28;20048;-42
2023/03/07 04:56:15;;;;;;;13.75;3.55;;;2.90;99.90;;;;;;5048495;28;20056;-36
2023/03/07 04:58:42;;;;;;;11.75;2.40;;;2.90;99.90;;;;;;5054045;28;20414;-39
2023/03/07 05:01:08;;;;;;;9.20;1.60;;;2.90;99.90;;;;;;5047379;28;20114;-44
2023/03/07 05:03:34;;;;;;;8.32;2.75;;;2.90;99.90;;;;;;5045610;28;20163;-40
2023/03/07 05:06:11;;;;;;;10.27;1.52;;;2.80;99.90;;;;;;5050617;28;20044;-40
2023/03/07 05:08:37;;;;;;;12.70;2.20;;;2.80;99.90;;;;;;5053980;28;20052;-42
2023/03/07 05:11:03;;;;;;;10.65;2.03;;;2.80;99.90;;;;;;5054092;28;20105;-42
2023/03/07 05:13:28;;;;;;;9.15;1.60;;;2.80;99.90;;;;;;5054226;28;20434;-41
2023/03/07 05:15:56;;;;;;;16.25;3.67;;;2.80;99.90;;;;;;5053620;28;20490;-39
2023/03/07 05:18:22;;;;;;;10.38;2.05;;;2.80;99.90;;;;;;5053942;28;20060;-44
2023/03/07 05:20:48;;;;;;;6.93;2.00;;;2.80;99.90;;;;;;5040992;28;20417;-41
2023/03/07 05:23:14;;;;;;;12.35;1.70;;;2.80;99.90;;;;;;5052355;28;20151;-41
2023/03/07 05:25:40;;;;;;;18.80;2.70;;;2.80;99.90;;;;;;5053231;28;20048;-40
2023/03/07 05:28:06;;;;;;;13.35;2.63;;;2.80;99.90;;;;;;5053715;28;20443;-46
2023/03/07 05:30:32;;;;;;;10.57;2.15;;;2.90;99.90;;;;;;5054050;28;20060;-44
2023/03/07 05:32:57;;;;;;;11.40;2.22;;;2.90;99.90;;;;;;5052640;28;20055;-43
2023/03/07 05:35:24;;;;;;;11.80;2.10;;;2.90;99.90;;;;;;5052397;28;20051;-42
2023/03/07 05:37:50;;;;;;;10.10;2.13;;;2.90;99.90;;;;;;5052420;28;20438;-41
2023/03/07 05:40:17;;;;;;;12.95;2.22;;;2.90;99.90;;;;;;5040401;28;20056;-40
2023/03/07 05:42:43;;;;;;;11.93;2.20;;;2.90;99.90;;;;;;5052544;28;20037;-43
2023/03/07 05:45:09;;;;;;;13.20;2.15;;;2.90;99.90;;;;;;5053232;28;20781;-45
2023/03/07 05:47:36;;;;;;;12.52;2.00;;;2.90;99.90;;;;;;5067252;28;20145;-45
2023/03/07 05:50:01;;;;;;;11.02;1.85;;;2.90;99.90;;;;;;5074231;28;20051;-37
2023/03/07 05:52:27;;;;;;;10.63;2.33;;;2.90;99.90;;;;;;5061461;28;20045;-40
2023/03/07 05:54:54;;;;;;;14.82;2.35;;;2.90;99.90;;;;;;5052499;28;20052;-40
2023/03/07 05:57:20;;;;;;;9.18;1.90;;;2.90;99.90;;;;;;5046501;28;20575;-41
2023/03/07 05:59:46;;;;;;;9.20;1.40;;;2.90;99.90;;;;;;5053149;28;20127;-38
2023/03/07 06:02:12;;;;;;;5.82;1.67;;;2.90;99.90;;;;;;5052175;28;20055;-36
2023/03/07 06:04:37;;;;;;;10.35;1.85;;;2.90;99.90;;;;;;5053770;28;20048;-45
2023/03/07 06:07:03;;;;;;;9.82;1.83;;;2.90;99.90;;;;;;5052855;28;20497;-38
2023/03/07 06:09:29;;;;;;;10.40;1.67;;;2.90;99.90;;;;;;5053329;28;20065;-43
2023/03/07 06:11:54;;;;;;;10.70;1.80;;;2.90;99.90;;;;;;5052246;28;20222;-42
2023/03/07 06:14:20;;;;;;;10.55;2.03;;;2.90;99.90;;;;;;5053145;28;20121;-37
2023/03/07 06:16:46;;;;;;;11.30;2.00;;;2.90;99.90;;;;;;5050617;28;20467;-37
2023/03/07 06:19:11;;;;;;;8.00;1.92;;;2.90;99.90;;;;;;5053345;28;20103;-41
2023/03/07 06:21:37;;;;;;;11.20;2.05;;;2.90;99.90;;;;;;5052980;28;20107;-46
2023/03/07 06:24:04;;;;;;;11.38;1.95;;;2.90;99.90;;;;;;5052495;28;20048;-36
2023/03/07 06:26:29;;;;;;;8.07;2.38;;;2.90;99.90;;;;;;5052414;28;20056;-43
2023/03/07 06:28:55;;;;;;;14.65;1.98;;;3.00;99.90;;;;;;5053529;28;20207;-40
2023/03/07 06:31:21;;;;;;;14.05;1.85;;;3.00;99.90;;;;;;5051890;28;20048;-44
2023/03/07 06:33:47;;;;;;;10.70;2.13;;;3.00;99.90;;;;;;5064097;28;20047;-42
2023/03/07 06:36:14;;;;;;;11.93;1.77;;;3.00;99.90;;;;;;5073881;28;20505;-39
2023/03/07 06:38:40;;;;;;;8.55;1.95;;;3.00;99.90;;;;;;5049334;28;20041;-42
2023/03/07 06:41:06;;;;;;;8.02;1.50;;;3.10;99.90;;;;;;5063949;28;20508;-43
2023/03/07 06:43:32;;;;;;;9.50;1.70;;;3.10;99.90;;;;;;5057265;28;20545;-37
2023/03/07 06:45:58;;;;;;;16.58;1.92;;;3.10;99.90;;;;;;5054263;28;20063;-38
2023/03/07 06:48:24;;;;;;;7.22;1.60;;;3.10;99.90;;;;;;5055418;28;20219;-43
2023/03/07 06:50:50;;;;;;;8.40;2.33;;;3.00;99.90;;;;;;5055926;28;20354;-43
2023/03/07 06:53:16;;;;;;;6.57;1.10;;;3.00;99.90;;;;;;5051228;28;20048;-41
2023/03/07 06:55:41;;;;;;;7.18;1.35;;;3.00;99.90;;;;;;5051676;28;20097;-42
2023/03/07 06:58:07;;;;;;;5.05;2.08;;;2.90;99.90;;;;;;5064128;28;20486;-40
2023/03/07 07:00:33;;;;;;;7.80;1.40;;;2.90;99.90;;;;;;5076384;28;20131;-36
2023/03/07 07:02:59;;;;;;;8.63;1.50;;;2.90;99.90;;;;;;5076171;28;20434;-36
2023/03/07 07:05:25;;;;;;;9.32;1.25;;;2.80;99.90;;;;;;5075308;28;20551;-44
2023/03/07 07:07:50;;;;;;;3.90;1.00;;;2.90;99.90;;;;;;5076158;28;20079;-40
2023/03/07 07:10:16;;;;;;;12.73;2.47;;;2.80;99.90;;;;;;5057380;28;20036;-45
2023/03/07 07:12:42;;;;;;;5.07;0.98;;;2.80;99.90;;;;;;5075182;28;20039;-39
2023/03/07 07:15:08;;;;;;;8.45;1.73;;;2.80;99.90;;;;;;5075977;28;20052;-43
2023/03/07 07:17:34;;;;;;;5.28;1.10;;;2.80;99.90;;;;;;5068038;28;20044;-40
2023/03/07 07:20:05;;;;;;;7.60;1.25;;;2.80;99.90;;;;;;5058015;28;20049;-45
2023/03/07 07:22:32;;;;;;;9.18;1.58;;;2.90;99.90;;;;;;5057040;28;20134;-44
2023/03/07 07:24:57;;;;;;;8.27;1.60;;;2.90;99.90;;;;;;5058799;28;20056;-41
2023/03/07 07:27:23;;;;;;;6.55;1.55;;;2.90;99.90;;;;;;5057405;28;20040;-42
2023/03/07 07:29:49;;;;;;;16.02;1.80;;;3.00;99.90;;;;;;5059302;28;20301;-37
2023/03/07 07:32:15;;;;;;;12.18;1.77;;;3.00;99.90;;;;;;5057368;28;20123;-42
2023/03/07 07:34:40;;;;;;;10.30;1.75;;;3.10;99.90;;;;;;5059750;28;20087;-39
2023/03/07 07:37:06;;;;;;;11.93;1.83;;;3.10;99.90;;;;;;5053897;28;20918;-45
2023/03/07 07:39:32;;;;;;;7.40;1.50;;;3.10;99.90;;;;;;5054901;28;20517;-41
2023/03/07 07:41:57;;;;;;;7.10;1.50;;;3.20;99.90;;;;;;5053581;28;20074;-39
2023/03/07 07:44:23;;;;;;;9.27;1.20;;;3.20;99.90;;;;;;5053213;28;20119;-41
2023/03/07 07:46:49;;;;;;;11.43;1.85;;;3.20;99.90;;;;;;5054028;28;20047;-40
2023/03/07 07:49:15;;;;;;;7.03;1.45;;;3.30;99.90;;;;;;5054989;28;20048;-42
2023/03/07 07:51:40;;;;;;;6.82;1.30;;;3.30;99.90;;;;;;5054871;28;20402;-37
2023/03/07 07:54:07;;;;;;;11.57;1.50;;;3.30;99.90;;;;;;5050303;28;20672;-42
2023/03/07 07:56:33;;;;;;;6.05;1.55;;;3.40;99.90;;;;;;5050125;28;20087;-37
2023/03/07 07:58:59;;;;;;;6.75;1.10;;;3.40;99.90;;;;;;5054719;28;20156;-38
2023/03/07 08:01:24;;;;;;;8.95;1.33;;;3.40;99.90;;;;;;5054338;28;20156;-45
2023/03/07 08:03:50;;;;;;;6.80;1.35;;;3.40;99.90;;;;;;5069555;28;20051;-42
2023/03/07 08:06:20;;;;;;;6.93;1.60;;;3.50;99.90;;;;;;5074709;28;20501;-39
2023/03/07 08:08:47;;;;;;;5.70;1.25;;;3.50;99.90;;;;;;5074522;28;20074;-39
2023/03/07 08:11:13;;;;;;;7.68;1.30;;;3.50;99.90;;;;;;5074774;28;20495;-44
2023/03/07 08:13:39;;;;;;;6.43;1.15;;;3.60;99.90;;;;;;5061965;28;20075;-46
2023/03/07 08:16:23;;;;;;;7.32;1.45;;;3.60;99.90;;;;;;5075548;28;20121;-44
2023/03/07 08:18:54;;;;;;;7.78;1.30;;;3.70;99.90;;;;;;5075041;28;20481;-36
2023/03/07 08:21:20;;;;;;;6.32;1.00;;;3.70;99.90;;;;;;5074546;28;20580;-41
2023/03/07 08:23:46;;;;;;;5.93;2.15;;;3.70;99.90;;;;;;5074408;28;20044;-41
2023/03/07 08:26:12;;;;;;;6.68;1.38;;;3.80;99.90;;;;;;5074995;28;20044;-40
2023/03/07 08:28:38;;;;;;;9.38;1.77;;;3.80;99.90;;;;;;5073837;28;20051;-46
2023/03/07 08:31:16;;;;;;;9.23;1.65;;;3.80;99.90;;;;;;5074982;28;20044;-41
2023/03/07 08:33:42;;;;;;;6.75;1.17;;;3.80;99.90;;;;;;5041870;28;20055;-42
2023/03/07 08:36:08;;;;;;;4.45;1.10;;;3.90;99.90;;;;;;5054345;28;20084;-47
2023/03/07 08:38:35;;;;;;;7.97;1.50;;;3.90;99.90;;;;;;5049031;28;20318;-40
2023/03/07 08:41:03;;;;;;;5.38;1.30;;;3.90;99.90;;;;;;5092860;27;20496;-42
2023/03/07 08:43:29;;;;;;;6.60;1.10;;;3.90;99.90;;;;;;5073800;28;20048;-38
2023/03/07 08:45:56;;;;;;;12.13;1.45;;;4.00;99.90;;;;;;5073208;28;20704;-44
2023/03/07 08:48:22;;;;;;;5.80;1.38;;;4.00;99.90;;;;;;5074278;28;20478;-42
2023/03/07 08:50:47;;;;;;;9.95;1.35;;;4.00;99.90;;;;;;5072950;28;20044;-44
2023/03/07 08:53:14;;;;;;;12.20;4.47;;;4.10;99.90;;;;;;5038613;28;20466;-42
2023/03/07 08:55:40;;;;;;;19.23;9.85;;;4.20;99.90;;;;;;5048149;28;20048;-46
2023/03/07 08:58:06;;;;;;;64.28;43.80;;;4.30;99.90;;;;;;5054408;28;20059;-47
2023/03/07 09:00:32;;;;;;;7.95;4.85;;;4.30;99.90;;;;;;5053198;28;20079;-40
2023/03/07 09:02:57;;;;;;;8.48;7.07;;;4.20;99.90;;;;;;5053570;28;20569;-44
2023/03/07 09:05:24;;;;;;;5.60;2.90;;;4.00;99.90;;;;;;5052361;28;20098;-42
2023/03/07 09:07:49;;;;;;;11.82;7.35;;;3.80;99.90;;;;;;5051560;28;20810;-44
2023/03/07 09:10:18;;;;;;;12.43;4.65;;;3.60;99.90;;;;;;5053271;28;20041;-41
2023/03/07 09:12:43;;;;;;;15.00;11.02;;;3.50;99.90;;;;;;5053918;28;20153;-41
2023/03/07 09:15:09;;;;;;;12.40;6.25;;;3.40;99.90;;;;;;5052941;28;20461;-40
2023/03/07 09:17:35;;;;;;;116.60;104.82;;;3.40;99.90;;;;;;5054592;28;20048;-41
2023/03/07 09:20:01;;;;;;;16.38;11.75;;;3.40;99.90;;;;;;5053729;28;20067;-36
2023/03/07 09:22:27;;;;;;;17.00;11.38;;;3.50;99.90;;;;;;5053206;28;20056;-40
2023/03/07 09:24:52;;;;;;;60.20;51.47;;;3.60;99.90;;;;;;5053981;28;20121;-42
2023/03/07 09:27:18;;;;;;;14.07;8.93;;;3.60;99.90;;;;;;5073843;28;20047;-43
2023/03/07 09:29:45;;;;;;;18.67;11.05;;;3.70;99.90;;;;;;5058207;28;20071;-42
2023/03/07 09:32:11;;;;;;;90.03;74.75;;;3.80;99.90;;;;;;5053309;28;20032;-40
2023/03/07 09:34:36;;;;;;;10.57;4.68;;;3.80;99.90;;;;;;5055645;28;20040;-43
2023/03/07 09:37:02;;;;;;;21.40;15.30;;;3.90;99.90;;;;;;5052575;28;20516;-39
2023/03/07 09:39:27;;;;;;;82.82;58.00;;;3.90;99.90;;;;;;5046976;28;20236;-43
2023/03/07 09:42:14;;;;;;;58.33;47.25;;;4.10;99.90;;;;;;5057396;28;20044;-40
2023/03/07 09:45:07;;;;;;;51.28;34.22;;;4.20;99.90;;;;;;5055977;28;20461;-41
2023/03/07 09:47:36;;;;;;;6.95;2.50;;;4.30;99.90;;;;;;5053016;28;20057;-42
2023/03/07 09:50:12;;;;;;;11.43;4.18;;;4.40;99.90;;;;;;5073380;28;20051;-41
2023/03/07 09:52:39;;;;;;;10.80;4.13;;;4.60;99.90;;;;;;5062077;28;20051;-43
2023/03/07 09:55:18;;;;;;;9.30;1.80;;;4.60;99.90;;;;;;5052182;28;20354;-41
2023/03/07 09:57:50;;;;;;;9.55;3.17;;;4.70;99.90;;;;;;5050743;28;20063;-45
2023/03/07 10:00:19;;;;;;;14.75;6.28;;;4.70;99.90;;;;;;5051796;28;20090;-37
2023/03/07 10:02:51;;;;;;;11.65;7.82;;;4.80;99.90;;;;;;5052637;28;20072;-47
2023/03/07 10:05:28;;;;;;;11.88;5.07;;;4.80;99.90;;;;;;5050809;28;20128;-43
2023/03/07 10:07:54;;;;;;;15.88;6.20;;;4.90;99.90;;;;;;5051610;28;20044;-41
2023/03/07 10:10:28;;;;;;;9.38;6.00;;;4.90;99.90;;;;;;5053588;28;20060;-45
2023/03/07 10:13:00;;;;;;;13.05;7.82;;;5.00;99.90;;;;;;5055702;28;20051;-40
2023/03/07 10:15:35;;;;;;;36.25;32.28;;;5.00;99.90;;;;;;5054127;28;20044;-41
2023/03/07 10:18:26;;;;;;;14.85;7.22;;;5.20;99.90;;;;;;5056410;28;20048;-38
2023/03/07 10:21:14;;;;;;;8.15;2.47;;;5.40;99.90;;;;;;5056764;28;20571;-40
2023/03/07 10:23:40;;;;;;;14.57;5.97;;;5.50;99.90;;;;;;5054272;28;20217;-45
2023/03/07 10:26:12;;;;;;;8.90;2.42;;;5.70;99.90;;;;;;5055763;28;20089;-48
2023/03/07 10:28:42;;;;;;;9.25;2.42;;;5.70;99.90;;;;;;5057367;28;20048;-46
2023/03/07 10:31:24;;;;;;;10.45;2.28;;;5.90;99.90;;;;;;5056869;28;20056;-50
2023/03/07 10:33:52;;;;;;;12.52;2.70;;;6.00;99.90;;;;;;5056869;28;20052;-44
2023/03/07 10:36:28;;;;;;;9.57;2.30;;;6.00;99.90;;;;;;5068301;28;20040;-40
2023/03/07 10:39:26;;;;;;;10.10;1.95;;;6.00;99.90;;;;;;5047898;28;20079;-43
2023/03/07 10:41:53;;;;;;;10.20;2.45;;;6.20;99.90;;;;;;5049239;28;20044;-42
2023/03/07 10:44:20;;;;;;;8.93;2.13;;;6.20;99.90;;;;;;5075343;28;20047;-37
2023/03/07 10:46:53;;;;;;;8.70;1.65;;;6.10;99.90;;;;;;5074554;28;20508;-44
2023/03/07 10:49:27;;;;;;;6.90;1.30;;;5.50;99.90;;;;;;5075229;28;20048;-39
2023/03/07 10:52:16;;;;;;;5.10;1.45;;;5.40;99.90;;;;;;5072285;28;20569;-40
2023/03/07 10:54:41;;;;;;;7.25;1.60;;;5.20;99.90;;;;;;5052069;28;20131;-46
2023/03/07 10:57:15;;;;;;;5.93;1.20;;;5.30;99.90;;;;;;5049601;28;20051;-40
2023/03/07 10:59:46;;;;;;;;;;;5.30;99.90;;;;;;5055423;28;20049;-42
2023/03/07 11:02:34;;;;;;;10.23;3.22;;;5.40;99.90;;;;;;5052968;28;20400;-45
2023/03/07 11:05:00;;;;;;;11.80;3.67;;;5.50;99.90;;;;;;5054171;28;20052;-39
2023/03/07 11:07:35;;;;;;;13.63;8.50;;;5.60;99.90;;;;;;5054335;28;20107;-42
2023/03/07 11:10:22;;;;;;;9.32;5.15;;;5.80;99.90;;;;;;5054437;28;20060;-39
2023/03/07 11:12:47;;;;;;;9.63;4.38;;;5.80;99.90;;;;;;5054012;28;20093;-43
2023/03/07 11:15:20;;;;;;;13.95;4.15;;;5.90;99.90;;;;;;5054137;28;20045;-37
2023/03/07 11:17:47;;;;;;;13.13;10.03;;;5.90;99.90;;;;;;5054447;28;20051;-40
2023/03/07 11:20:23;;;;;;;15.90;12.80;;;5.90;99.90;;;;;;5054061;28;20055;-42
2023/03/07 11:23:08;;;;;;;9.02;4.75;;;5.90;99.90;;;;;;5054710;28;20048;-37
2023/03/07 11:25:35;;;;;;;10.48;3.03;;;5.90;99.90;;;;;;5053973;28;20123;-37
2023/03/07 11:28:01;;;;;;;11.75;4.40;;;5.90;99.90;;;;;;5054986;28;20135;-43
2023/03/07 11:30:29;;;;;;;8.25;2.45;;;5.90;99.90;;;;;;5052329;28;20044;-45
2023/03/07 11:33:24;;;;;;;11.43;3.20;;;5.90;99.90;;;;;;5054307;28;20806;-38
2023/03/07 11:36:06;;;;;;;11.73;3.28;;;5.90;99.90;;;;;;5054071;28;20487;-45
2023/03/07 11:38:51;;;;;;;7.32;2.20;;;5.90;99.90;;;;;;5053645;28;20318;-42
2023/03/07 11:41:29;;;;;;;8.50;2.15;;;5.90;99.90;;;;;;5055313;28;20128;-47
2023/03/07 11:43:58;;;;;;;13.35;2.70;;;6.00;99.90;;;;;;5056899;28;20083;-46
2023/03/07 11:47:01;;;;;;;10.73;2.35;;;6.00;99.90;;;;;;5074004;28;20050;-36
2023/03/07 11:49:30;;;;;;;9.88;2.63;;;6.00;99.90;;;;;;5074564;28;20055;-45
2023/03/07 11:52:17;;;;;;;10.85;2.33;;;6.10;99.90;;;;;;5070600;28;20347;-40
2023/03/07 11:55:11;;;;;;;8.80;2.42;;;6.20;99.90;;;;;;5053035;28;20129;-48
2023/03/07 11:57:42;;;;;;;;;;;6.20;99.90;;;;;;5051241;28;20048;-46
2023/03/07 12:00:20;;;;;;;8.90;2.05;;;6.10;99.90;;;;;;5053909;28;19981;-44
2023/03/07 12:03:13;;;;;;;7.88;1.60;;;6.30;99.90;;;;;;5060126;28;20093;-41
2023/03/07 12:06:16;;;;;;;7.17;1.87;;;6.20;99.90;;;;;;5073964;28;20047;-45
2023/03/07 12:08:56;;;;;;;7.47;2.20;;;6.20;99.90;;;;;;5067101;28;20049;-42
2023/03/07 12:11:37;;;;;;;10.63;1.50;;;6.10;99.90;;;;;;5048964;28;20048;-40
2023/03/07 12:14:09;;;;;;;9.20;1.60;;;6.10;99.90;;;;;;5061573;28;20048;-43
2023/03/07 12:16:37;;;;;;;10.88;1.60;;;6.10;99.90;;;;;;5074395;28;20427;-45
2023/03/07 12:19:32;;;;;;;7.63;1.80;;;6.20;99.90;;;;;;5041590;28;20064;-42
2023/03/07 12:22:12;;;;;;;8.43;2.13;;;6.30;99.90;;;;;;5049319;28;20052;-42
2023/03/07 12:25:15;;;;;;;6.38;2.88;;;6.30;99.90;;;;;;5036493;28;20183;-45
2023/03/07 12:28:05;;;;;;;12.60;3.88;;;6.30;99.90;;;;;;4990405;28;20061;-43
2023/03/07 12:30:45;;;;;;;8.00;3.40;;;6.20;99.90;;;;;;4972785;28;20054;-42
2023/03/07 12:33:22;;;;;;;12.02;7.78;;;6.10;99.90;;;;;;4989612;28;20058;-39
2023/03/07 12:35:53;;;;;;;9.95;5.00;;;6.20;99.90;;;;;;4989661;28;20057;-42
2023/03/07 12:38:46;;;;;;;12.10;5.20;;;6.30;99.90;;;;;;4991615;28;20115;-43
2023/03/07 12:41:41;;;;;;;9.25;4.00;;;6.30;99.90;;;;;;5004540;28;20092;-41
2023/03/07 12:44:14;;;;;;;11.18;3.55;;;6.40;99.90;;;;;;5010259;28;20068;-49
2023/03/07 12:46:50;;;;;;;11.27;8.40;;;6.40;99.90;;;;;;4992540;28;20443;-38
2023/03/07 12:49:36;;;;;;;9.07;4.55;;;6.40;99.90;;;;;;4995420;28;20892;-41
2023/03/07 12:52:07;;;;;;;11.60;4.28;;;6.30;99.90;;;;;;4989646;28;20512;-44
2023/03/07 12:54:45;;;;;;;12.45;5.90;;;6.30;99.90;;;;;;4989454;28;20198;-45
2023/03/07 12:57:25;;;;;;;15.93;9.32;;;6.30;99.90;;;;;;4982457;28;20056;-40
2023/03/07 12:59:56;;;;;;;8.05;3.55;;;6.30;99.90;;;;;;4997095;28;20132;-43
2023/03/07 13:02:28;;;;;;;13.45;8.55;;;6.40;99.90;;;;;;4992682;28;20056;-39